Flight Track Log - Related Links

Times and Time Zones

All times are in EDT time to prevent confusion due to time zone crossing. See the AWE530 flight status page for this flight to view local times or setup timezone preferences in your user account.

Time Position Orientation Groundspeed Altitude Reporting Facility
EDT Latitude Longitude Course Direction KTS MPH feet Rate Location/Type
Tue 01:55:19 AM 33.4333 -112.0333 270° West 132 152 2,100  Level Phoenix TRACON
Tue 01:56:37 AM 33.4333 -112.1000 270° West 231 266 3,600 1,730 Climbing Phoenix TRACON
Tue 01:57:10 AM 33.4336 -112.1500 270° West 240 276 5,300 3,064 Climbing Albuquerque Center
Tue 01:58:11 AM 33.4897 -112.2047 321° Northwest 295 339 8,400 2,826 Climbing Albuquerque Center
Tue 01:59:11 AM 33.5761 -112.2206 351° North 315 362 11,000 1,918 Climbing Albuquerque Center
Tue 02:00:13 AM 33.6797 -112.2456 349° North 382 440 12,300 1,770 Climbing Albuquerque Center
Tue 02:01:13 AM 33.7933 -112.2747 348° North 409 471 14,600 2,430 Climbing Albuquerque Center
Tue 02:02:14 AM 33.9092 -112.3058 347° North 421 484 17,200 2,016 Climbing Albuquerque Center
Tue 02:03:15 AM 33.9892 -112.4072 314° West 420 483 18,700 1,574 Climbing Albuquerque Center
Tue 02:04:16 AM 34.0661 -112.5178 310° West 428 493 20,400 1,537 Climbing Albuquerque Center
Tue 02:05:16 AM 34.1442 -112.6322 310° West 439 505 21,800 1,537 Climbing Albuquerque Center
Tue 02:06:17 AM 34.2247 -112.7497 310° West 449 517 23,500 1,475 Climbing Albuquerque Center
Tue 02:07:18 AM 34.3050 -112.8667 310° West 452 520 24,800 1,230 Climbing Albuquerque Center
Tue 02:08:19 AM 34.3858 -112.9872 309° West 457 526 26,000 1,140 Climbing Albuquerque Center
Tue 02:09:19 AM 34.4664 -113.1044 310° West 462 532 27,100 1,289 Climbing Albuquerque Center
Tue 02:10:20 AM 34.5653 -113.2517 309° West 468 539 28,600 1,525 Climbing Albuquerque Center
Tue 02:11:21 AM 34.6458 -113.3719 309° West 464 534 30,200 1,475 Climbing Albuquerque Center
Tue 02:12:22 AM 34.7261 -113.4908 309° West 458 527 31,600 1,623 Climbing Albuquerque Center
Tue 02:13:23 AM 34.8028 -113.6086 308° West 450 518 33,500 1,884 Climbing Albuquerque Center
Tue 02:14:23 AM 34.8803 -113.7247 309° West 444 511 35,400 1,934 Climbing Albuquerque Center
Tue 02:15:24 AM 34.9550 -113.8361 309° West 431 496 37,400 1,230 Climbing Albuquerque Center
Tue 02:16:25 AM 35.0256 -113.9458 308° West 417 480 37,900 298 Climbing Albuquerque Center
Tue 02:17:25 AM 35.1061 -114.0689 309° West 422 486 38,000 45 Climbing Albuquerque Center
Tue 02:18:38 AM 35.1947 -114.2033 309° West 423 487 38,000 -44 Level Los Angeles Center
Tue 02:19:40 AM 35.2669 -114.3142 309° West 418 481 37,900 -49 Descending Los Angeles Center
Tue 02:20:41 AM 35.3392 -114.4222 309° West 412 474 37,900  Level Los Angeles Center
Tue 02:21:42 AM 35.4103 -114.5336 308° West 413 475 37,900 45 Level Los Angeles Center
Tue 02:22:55 AM 35.4803 -114.6428 308° West 409 471 38,000 44 Climbing Los Angeles Center
Tue 02:23:57 AM 35.5658 -114.7761 308° West 412 474 38,000 -33 Level Los Angeles Center
Tue 02:25:00 AM 35.6366 -114.8868 308° West  Level FlightAware Approximate
Tue 02:25:59 AM 35.7094 -114.9950 308° West 411 473 37,900  Level Los Angeles Center
Tue 02:27:00 AM 35.7794 -115.1056 308° West 410 472 38,000  Climbing Los Angeles Center
Tue 02:28:01 AM 35.8494 -115.2158 308° West 408 470 37,900  Descending Los Angeles Center
Tue 02:29:02 AM 35.9347 -115.3503 308° West 413 475 38,000 49 Climbing Los Angeles Center
Tue 02:30:03 AM 35.9775 -115.4178 308° West 414 476 38,000 -49 Level Los Angeles Center
Tue 02:31:04 AM 36.0758 -115.5744 308° West 410 472 37,900 -49 Descending Los Angeles Center
Tue 02:32:06 AM 36.1467 -115.6886 308° West 411 473 37,900  Level Los Angeles Center
Tue 02:33:07 AM 36.2192 -115.8044 308° West 417 480 37,900 49 Level Los Angeles Center
Tue 02:34:08 AM 36.2939 -115.9228 308° West 417 480 38,000 49 Climbing Los Angeles Center
Tue 02:35:09 AM 36.3697 -116.0311 311° West 417 480 38,000  Level Los Angeles Center
Tue 02:36:10 AM 36.4486 -116.1364 313° West 417 480 38,000 -49 Level Los Angeles Center
Tue 02:37:11 AM 36.5286 -116.2408 314° West 412 474 37,900 -49 Descending Los Angeles Center
Tue 02:38:12 AM 36.6039 -116.3422 313° West 408 470 37,900  Level Los Angeles Center
Tue 02:39:13 AM 36.6806 -116.4481 312° West 411 473 37,900  Level Los Angeles Center
Tue 02:40:14 AM 36.7553 -116.5525 312° West 406 467 37,900  Level Los Angeles Center
Tue 02:41:27 AM 36.8308 -116.6567 312° West 405 466 37,900 45 Level Los Angeles Center
Tue 02:42:28 AM 36.9214 -116.7806 312° West 402 463 38,000  Climbing Los Angeles Center
Tue 02:43:29 AM 36.9964 -116.8867 312° West 405 466 37,900 -492 Descending Los Angeles Center
Tue 02:44:30 AM 37.0733 -116.9892 313° West 403 464 37,000 -934 Descending Los Angeles Center
Tue 02:45:31 AM 37.1614 -117.0822 320° Northwest 411 473 36,000 -984 Descending Los Angeles Center
Tue 02:46:32 AM 37.2508 -117.1756 320° Northwest 415 478 35,000 -984 Descending Los Angeles Center
Tue 02:47:33 AM 37.3425 -117.2708 320° Northwest 424 488 34,000 -541 Descending Los Angeles Center
Tue 02:48:34 AM 37.4347 -117.3672 320° Northwest 428 493 33,900  Descending Los Angeles Center
Tue 02:49:29 AM 37.5261 -117.4650 320° Northwest 431 496 34,000  Climbing Oakland Center
Tue 02:50:30 AM 37.6183 -117.5603 321° Northwest 427 491 33,900 -541 Descending Oakland Center
Tue 02:51:31 AM 37.7094 -117.6572 320° Northwest 426 490 32,900 -992 Descending Oakland Center
Tue 02:52:31 AM 37.8039 -117.7567 320° Northwest 435 501 31,900 -992 Descending Oakland Center
Tue 02:53:32 AM 37.8992 -117.8575 320° Northwest 442 509 30,900 -984 Descending Oakland Center
Tue 02:54:33 AM 37.9944 -117.9606 320° Northwest 447 514 29,900 -984 Descending Oakland Center
Tue 02:55:34 AM 38.0883 -118.0611 320° Northwest 440 506 28,900 -942 Descending Oakland Center
Tue 02:56:34 AM 38.1903 -118.1717 320° Northwest 428 493 28,000 -496 Descending Oakland Center
Tue 02:57:35 AM 38.2819 -118.2697 320° Northwest 429 494 27,900 -49 Descending Oakland Center
Tue 02:58:36 AM 38.3781 -118.3733 320° Northwest 446 513 27,900 50 Level Oakland Center
Tue 02:59:36 AM 38.4728 -118.4750 320° Northwest 445 512 28,000  Climbing Oakland Center
Tue 03:00:37 AM 38.5672 -118.5800 319° Northwest 448 516 27,900 -49 Descending Oakland Center
Tue 03:01:38 AM 38.6611 -118.6828 319° Northwest 444 511 27,900 49 Level Oakland Center
Tue 03:02:39 AM 38.7508 -118.7828 319° Northwest 428 493 28,000 -496 Climbing Oakland Center
Tue 03:03:39 AM 38.8286 -118.8686 319° Northwest 373 429 26,900 -1,388 Descending Oakland Center
Tue 03:04:40 AM 38.9056 -118.9536 319° Northwest 365 420 25,200 -1,820 Descending Oakland Center
Tue 03:05:41 AM 38.9792 -119.0356 319° Northwest 352 405 23,200 -1,721 Descending Oakland Center
Tue 03:06:42 AM 39.0506 -119.1147 319° Northwest 340 391 21,700 -1,686 Descending Oakland Center
Tue 03:07:42 AM 39.1164 -119.1903 318° Northwest 320 368 19,800 -1,934 Descending Oakland Center
Tue 03:08:43 AM 39.1828 -119.2636 319° Northwest 314 361 17,800 -2,083 Descending Oakland Center
Tue 03:09:43 AM 39.2511 -119.3417 319° Northwest 324 373 15,600 -2,132 Descending Oakland Center
Tue 03:10:44 AM 39.3244 -119.4233 319° Northwest 341 392 13,500 -1,623 Descending Oakland Center
Tue 03:11:45 AM 39.3967 -119.5042 319° Northwest 343 395 12,300 -1,240 Descending Oakland Center
Tue 03:12:45 AM 39.4708 -119.5594 330° Northwest 323 372 11,000 -1,190 Descending Oakland Center
Tue 03:13:46 AM 39.5503 -119.5875 345° North 299 344 9,900 -843 Descending Oakland Center
Tue 03:14:46 AM 39.6208 -119.6172 342° North 280 322 9,300 -595 Descending Oakland Center
Tue 03:15:47 AM 39.6600 -119.6711 313° West 231 266 8,700 -541 Descending Oakland Center
Tue 03:16:48 AM 39.6842 -119.7339 297° West 210 242 8,200 -397 Descending Oakland Center
Tue 03:17:48 AM 39.6683 -119.7700 240° Southwest 192 221 7,900 -298 Descending Oakland Center
Tue 03:18:49 AM 39.6294 -119.7714 182° South 183 211 7,600 -1,024 Descending Oakland Center
Tue 03:19:51 AM 39.5833 -119.7667 175° South 139 160 5,800 -1,279 Descending Northern Cal TRACON
Tue 03:20:51 AM 39.5333 -119.7667 180° South 139 160 5,000 -800 Descending Northern Cal TRACON
Tue 03:22:00 AM 39.4991 -119.7681 180° South  Level Estimated

Login

Don't have an account? Register now (free) for customized features, flight alerts, and more!